createdAt,value
2018-05-16T00:00:13.300Z,17.25
2018-05-16T00:01:13.324Z,17.23
2018-05-16T00:03:06.255Z,17.18
2018-05-16T00:04:06.258Z,17.15
2018-05-16T00:05:59.170Z,17.28
2018-05-16T00:06:59.191Z,17.25
2018-05-16T00:08:52.129Z,17.43
2018-05-16T00:09:52.122Z,17.43
2018-05-16T00:11:45.035Z,17.41
2018-05-16T00:12:45.057Z,17.52
2018-05-16T00:14:37.987Z,17.41
2018-05-16T00:15:37.990Z,17.36
2018-05-16T00:17:30.921Z,17.46
2018-05-16T00:18:30.922Z,17.51
2018-05-16T00:20:23.832Z,17.54
2018-05-16T00:21:23.858Z,17.56
2018-05-16T00:23:16.787Z,17.68
2018-05-16T00:24:16.787Z,17.66
2018-05-16T00:26:09.706Z,17.81
2018-05-16T00:27:09.731Z,17.74
2018-05-16T00:29:02.661Z,17.79
2018-05-16T00:30:02.664Z,17.74
2018-05-16T00:31:55.574Z,17.86
2018-05-16T00:32:55.595Z,17.81
2018-05-16T00:34:48.529Z,17.75
2018-05-16T00:35:48.528Z,17.77
2018-05-16T00:37:41.473Z,17.81
2018-05-16T00:38:41.462Z,17.77
2018-05-16T00:40:34.371Z,17.77
2018-05-16T00:41:34.395Z,17.74
2018-05-16T00:43:27.326Z,17.81
2018-05-16T00:44:27.327Z,17.82
2018-05-16T00:46:20.240Z,17.86
2018-05-16T00:47:20.263Z,17.82
2018-05-16T00:49:13.199Z,17.87
2018-05-16T00:50:13.197Z,17.90
2018-05-16T00:52:06.110Z,17.86
2018-05-16T00:53:06.177Z,17.79
2018-05-16T00:54:59.065Z,17.89
2018-05-16T00:55:59.066Z,17.84
2018-05-16T00:57:51.980Z,17.86
2018-05-16T00:58:52.001Z,17.96
2018-05-16T01:00:44.932Z,17.82
2018-05-16T01:01:44.935Z,17.89
2018-05-16T01:03:37.915Z,17.78
2018-05-16T01:04:37.872Z,17.75
2018-05-16T01:06:30.781Z,17.71
2018-05-16T01:07:30.801Z,17.82
2018-05-16T01:09:23.734Z,17.77
2018-05-16T01:10:23.736Z,17.59
2018-05-16T01:12:16.654Z,17.52
2018-05-16T01:13:16.680Z,17.52
2018-05-16T01:15:09.608Z,17.51
2018-05-16T01:16:09.609Z,17.41
2018-05-16T01:18:02.522Z,17.31
2018-05-16T01:19:02.544Z,17.19
2018-05-16T01:20:55.475Z,17.11
2018-05-16T01:21:55.473Z,17.08
2018-05-16T01:23:48.383Z,16.97
2018-05-16T01:24:48.403Z,17.04
2018-05-16T01:26:48.462Z,16.93
2018-05-16T01:27:41.344Z,16.94
2018-05-16T01:29:34.285Z,17.01
2018-05-16T01:30:34.278Z,17.03
2018-05-16T01:32:27.187Z,17.00
2018-05-16T01:33:27.209Z,16.98
2018-05-16T01:35:20.141Z,17.01
2018-05-16T01:36:20.141Z,16.94
2018-05-16T01:38:13.054Z,17.06
2018-05-16T01:39:13.071Z,16.96
2018-05-16T01:41:06.998Z,16.86
2018-05-16T01:42:07.002Z,16.88
2018-05-16T01:43:59.909Z,16.76
2018-05-16T01:44:59.931Z,16.78
2018-05-16T01:46:52.862Z,16.86
2018-05-16T01:47:52.864Z,16.79
2018-05-16T01:49:45.779Z,16.79
2018-05-16T01:50:45.795Z,16.85
2018-05-16T01:52:38.726Z,16.68
2018-05-16T01:53:38.730Z,16.67
2018-05-16T01:55:31.656Z,16.71
2018-05-16T01:56:31.658Z,16.73
2018-05-16T01:58:24.566Z,16.60
2018-05-16T01:59:24.588Z,16.53
2018-05-16T02:01:17.517Z,16.48
2018-05-16T02:02:17.519Z,16.41
2018-05-16T02:04:10.426Z,16.48
2018-05-16T02:05:10.452Z,16.39
2018-05-16T02:07:03.378Z,16.30
2018-05-16T02:08:03.377Z,16.30
2018-05-16T02:09:56.283Z,16.34
2018-05-16T02:10:56.303Z,16.23
2018-05-16T02:12:49.233Z,16.28
2018-05-16T02:13:49.234Z,16.20
2018-05-16T02:15:42.140Z,16.15
2018-05-16T02:16:42.161Z,16.09
2018-05-16T02:18:35.091Z,15.94
2018-05-16T02:19:35.090Z,15.84
2018-05-16T02:21:28.018Z,15.74
2018-05-16T02:22:28.019Z,15.87
2018-05-16T02:24:20.927Z,15.69
2018-05-16T02:25:20.949Z,15.69
2018-05-16T02:27:13.886Z,15.68
2018-05-16T02:28:13.882Z,15.59
2018-05-16T02:30:06.791Z,15.59
2018-05-16T02:31:06.819Z,15.38
2018-05-16T02:32:59.740Z,15.50
2018-05-16T02:33:59.742Z,15.49
2018-05-16T02:35:52.656Z,15.57
2018-05-16T02:36:52.674Z,15.57
2018-05-16T02:38:45.602Z,15.56
2018-05-16T02:39:45.604Z,15.65
2018-05-16T02:41:38.532Z,15.65
2018-05-16T02:42:38.534Z,15.74
2018-05-16T02:44:31.440Z,15.65
2018-05-16T02:45:31.459Z,15.65
2018-05-16T02:47:24.473Z,15.71
2018-05-16T02:48:24.391Z,15.72
2018-05-16T02:50:17.300Z,15.78
2018-05-16T02:51:17.322Z,15.80
2018-05-16T02:53:10.249Z,15.89
2018-05-16T02:54:10.251Z,15.78
2018-05-16T02:56:03.161Z,15.80
2018-05-16T02:57:03.179Z,15.83
2018-05-16T02:58:56.107Z,15.74
2018-05-16T02:59:56.107Z,15.76
2018-05-16T03:01:49.041Z,15.84
2018-05-16T03:02:49.035Z,15.84
2018-05-16T03:04:41.941Z,15.80
2018-05-16T03:05:41.963Z,15.80
2018-05-16T03:07:34.892Z,15.76
2018-05-16T03:08:34.891Z,15.78
2018-05-16T03:10:27.795Z,15.83
2018-05-16T03:11:27.819Z,15.86
2018-05-16T03:13:20.749Z,15.78
2018-05-16T03:14:20.748Z,15.76
2018-05-16T03:16:13.655Z,15.78
2018-05-16T03:17:13.678Z,15.78
2018-05-16T03:19:06.733Z,15.68
2018-05-16T03:20:06.817Z,15.71
2018-05-16T03:21:59.641Z,15.72
2018-05-16T03:22:59.661Z,15.68
2018-05-16T03:24:52.590Z,15.69
2018-05-16T03:25:52.588Z,15.69
2018-05-16T03:27:45.519Z,15.56
2018-05-16T03:28:45.518Z,15.65
2018-05-16T03:30:38.427Z,15.59
2018-05-16T03:31:38.448Z,15.64
2018-05-16T03:33:31.388Z,15.67
2018-05-16T03:34:31.380Z,15.64
2018-05-16T03:36:24.285Z,15.60
2018-05-16T03:37:24.306Z,15.68
2018-05-16T03:39:17.234Z,15.71
2018-05-16T03:40:17.234Z,15.67
2018-05-16T03:42:10.138Z,15.57
2018-05-16T03:43:10.159Z,15.60
2018-05-16T03:45:03.092Z,15.57
2018-05-16T03:46:03.091Z,15.60
2018-05-16T03:47:55.999Z,15.59
2018-05-16T03:48:56.019Z,15.60
2018-05-16T03:50:48.948Z,15.60
2018-05-16T03:51:48.947Z,15.68
2018-05-16T03:53:41.887Z,15.60
2018-05-16T03:54:41.873Z,15.67
2018-05-16T03:56:34.780Z,15.68
2018-05-16T03:57:34.800Z,15.71
2018-05-16T03:59:27.732Z,15.65
2018-05-16T04:00:27.726Z,15.82
2018-05-16T04:02:20.677Z,15.94
2018-05-16T04:03:20.657Z,16.20
2018-05-16T04:05:13.584Z,16.60
2018-05-16T04:06:13.586Z,16.81
2018-05-16T04:08:06.490Z,17.00
2018-05-16T04:09:06.513Z,17.08
2018-05-16T04:10:59.441Z,17.36
2018-05-16T04:11:59.442Z,17.44
2018-05-16T04:13:52.352Z,17.70
2018-05-16T04:14:52.376Z,17.78
2018-05-16T04:16:45.303Z,18.08
2018-05-16T04:17:45.328Z,18.25
2018-05-16T04:19:38.220Z,18.52
2018-05-16T04:20:38.238Z,18.69
2018-05-16T04:22:31.172Z,18.99
2018-05-16T04:23:31.171Z,19.26
2018-05-16T04:25:24.115Z,19.55
2018-05-16T04:26:24.115Z,19.74
2018-05-16T04:28:17.025Z,20.02
2018-05-16T04:29:17.096Z,20.18
2018-05-16T04:31:09.986Z,20.48
2018-05-16T04:32:09.993Z,20.74
2018-05-16T04:34:02.901Z,21.07
2018-05-16T04:35:02.927Z,21.19
2018-05-16T04:36:55.863Z,21.56
2018-05-16T04:37:55.870Z,21.56
2018-05-16T04:39:48.778Z,21.65
2018-05-16T04:40:48.803Z,21.67
2018-05-16T04:42:41.735Z,21.94
2018-05-16T04:43:41.743Z,21.91
2018-05-16T04:45:34.704Z,22.09
2018-05-16T04:46:34.686Z,22.25
2018-05-16T04:48:27.599Z,22.28
2018-05-16T04:49:27.628Z,22.35
2018-05-16T04:51:20.570Z,22.46
2018-05-16T04:52:20.576Z,22.54
2018-05-16T04:54:13.494Z,22.80
2018-05-16T04:55:13.517Z,22.70
2018-05-16T04:57:07.448Z,22.47
2018-05-16T04:58:07.455Z,22.28
2018-05-16T05:00:00.372Z,22.22
2018-05-16T05:01:00.439Z,22.22
2018-05-16T05:02:53.336Z,22.51
2018-05-16T05:03:53.347Z,22.57
2018-05-16T05:05:46.259Z,22.65
2018-05-16T05:06:46.322Z,22.86
2018-05-16T05:08:39.226Z,22.91
2018-05-16T05:09:39.239Z,22.94
2018-05-16T05:11:32.174Z,23.10
2018-05-16T05:12:32.182Z,23.20
2018-05-16T05:14:25.102Z,23.47
2018-05-16T05:15:25.128Z,23.50
2018-05-16T05:17:18.076Z,23.60
2018-05-16T05:18:18.117Z,23.72
2018-05-16T05:20:11.018Z,23.54
2018-05-16T05:21:11.042Z,23.72
2018-05-16T05:23:03.993Z,23.87
2018-05-16T05:24:04.017Z,23.93
2018-05-16T05:25:56.910Z,23.97
2018-05-16T05:26:56.940Z,24.06
2018-05-16T05:28:49.889Z,23.91
2018-05-16T05:29:49.893Z,23.75
2018-05-16T05:31:42.813Z,23.53
2018-05-16T05:32:42.841Z,23.35
2018-05-16T05:34:35.786Z,22.83
2018-05-16T05:35:35.792Z,22.65
2018-05-16T05:37:29.727Z,22.54
2018-05-16T05:38:29.731Z,22.51
2018-05-16T05:40:22.651Z,22.55
2018-05-16T05:41:22.682Z,22.58
2018-05-16T05:43:15.642Z,22.76
2018-05-16T05:44:15.626Z,22.83
2018-05-16T05:46:08.543Z,23.05
2018-05-16T05:47:08.575Z,23.17
2018-05-16T05:49:01.513Z,23.54
2018-05-16T05:50:01.521Z,23.73
2018-05-16T05:51:54.442Z,23.95
2018-05-16T05:52:54.470Z,24.20
2018-05-16T05:54:47.420Z,24.40
2018-05-16T05:55:47.420Z,24.43
2018-05-16T05:57:40.370Z,24.71
2018-05-16T05:58:40.372Z,24.91
2018-05-16T06:00:34.519Z,25.15
2018-05-16T06:01:34.547Z,25.08
2018-05-16T06:03:27.489Z,25.20
2018-05-16T06:04:27.499Z,25.03
2018-05-16T06:06:20.423Z,24.80
2018-05-16T06:07:20.451Z,24.84
2018-05-16T06:09:13.402Z,24.57
2018-05-16T06:10:13.406Z,24.13
2018-05-16T06:12:06.330Z,23.66
2018-05-16T06:13:06.360Z,23.40
2018-05-16T06:14:59.310Z,23.12
2018-05-16T06:15:59.311Z,22.90
2018-05-16T06:17:52.235Z,22.64
2018-05-16T06:18:52.264Z,22.75
2018-05-16T06:20:45.204Z,22.88
2018-05-16T06:21:45.211Z,22.85
2018-05-16T06:23:38.161Z,23.00
2018-05-16T06:24:38.166Z,23.00
2018-05-16T06:26:31.089Z,23.01
2018-05-16T06:27:31.118Z,23.09
2018-05-16T06:29:24.055Z,23.23
2018-05-16T06:30:24.065Z,23.35
2018-05-16T06:32:16.990Z,23.48
2018-05-16T06:33:17.014Z,23.57
2018-05-16T06:35:11.031Z,23.57
2018-05-16T06:36:10.960Z,23.48
2018-05-16T06:38:03.885Z,23.50
2018-05-16T06:39:03.911Z,23.47
2018-05-16T06:40:56.851Z,23.15
2018-05-16T06:41:56.862Z,22.95
2018-05-16T06:43:49.782Z,22.67
2018-05-16T06:44:49.810Z,22.46
2018-05-16T06:46:42.747Z,22.30
2018-05-16T06:47:42.757Z,22.24
2018-05-16T06:49:35.696Z,21.98
2018-05-16T06:50:35.708Z,21.94
2018-05-16T06:52:28.624Z,21.59
2018-05-16T06:53:28.654Z,21.43
2018-05-16T06:55:21.588Z,21.25
2018-05-16T06:56:21.637Z,21.29
2018-05-16T06:58:14.515Z,21.27
2018-05-16T06:59:14.541Z,21.27
2018-05-16T07:01:07.487Z,21.04
2018-05-16T07:02:07.488Z,21.03
2018-05-16T07:04:00.435Z,20.85
2018-05-16T07:05:00.466Z,20.84
2018-05-16T07:06:53.363Z,20.73
2018-05-16T07:07:53.367Z,20.64
2018-05-16T07:09:46.317Z,20.59
2018-05-16T07:10:46.313Z,20.54
2018-05-16T07:12:39.222Z,20.47
2018-05-16T07:13:39.252Z,20.39
2018-05-16T07:15:32.183Z,20.41
2018-05-16T07:16:32.186Z,20.54
2018-05-16T07:18:25.109Z,20.59
2018-05-16T07:19:25.131Z,20.59
2018-05-16T07:21:18.065Z,20.61
2018-05-16T07:22:18.067Z,20.61
2018-05-16T07:24:10.982Z,20.58
2018-05-16T07:25:11.012Z,20.67
2018-05-16T07:27:04.935Z,20.74
2018-05-16T07:28:04.945Z,20.82
2018-05-16T07:29:57.858Z,20.74
2018-05-16T07:30:57.890Z,20.67
2018-05-16T07:32:50.821Z,20.59
2018-05-16T07:33:50.828Z,20.61
2018-05-16T07:35:43.765Z,20.64
2018-05-16T07:36:43.764Z,20.58
2018-05-16T07:38:36.686Z,20.61
2018-05-16T07:39:36.712Z,20.57
2018-05-16T07:41:29.651Z,20.51
2018-05-16T07:42:29.659Z,20.51
2018-05-16T07:44:22.570Z,20.47
2018-05-16T07:45:22.594Z,20.55
2018-05-16T07:47:15.529Z,20.58
2018-05-16T07:48:15.533Z,20.54
2018-05-16T07:50:08.448Z,20.47
2018-05-16T07:51:08.516Z,20.58
2018-05-16T07:53:01.408Z,20.55
2018-05-16T07:54:01.411Z,20.50
2018-05-16T07:55:54.332Z,20.54
2018-05-16T07:56:54.358Z,20.41
2018-05-16T07:58:47.290Z,20.18
2018-05-16T07:59:47.299Z,20.29
2018-05-16T08:01:40.239Z,20.13
2018-05-16T08:02:40.242Z,20.26
2018-05-16T08:04:33.153Z,20.06
2018-05-16T08:05:33.184Z,20.13
2018-05-16T08:07:26.115Z,20.14
2018-05-16T08:08:26.124Z,20.13
2018-05-16T08:10:19.032Z,20.14
2018-05-16T08:11:19.056Z,20.17
2018-05-16T08:13:11.995Z,20.32
2018-05-16T08:14:12.003Z,20.26
2018-05-16T08:16:04.918Z,20.21
2018-05-16T08:17:04.942Z,20.38
2018-05-16T08:18:57.875Z,20.59
2018-05-16T08:19:57.882Z,20.70
2018-05-16T08:21:50.902Z,20.80
2018-05-16T08:22:50.818Z,20.91
2018-05-16T08:24:43.743Z,21.12
2018-05-16T08:25:43.769Z,21.21
2018-05-16T08:27:36.706Z,21.22
2018-05-16T08:28:36.710Z,21.19
2018-05-16T08:30:29.638Z,21.32
2018-05-16T08:31:29.658Z,21.47
2018-05-16T08:33:22.589Z,21.58
2018-05-16T08:34:22.601Z,21.58
2018-05-16T08:36:15.513Z,21.59
2018-05-16T08:37:15.537Z,21.54
2018-05-16T08:39:08.474Z,21.69
2018-05-16T08:40:08.488Z,21.79
2018-05-16T08:42:01.401Z,21.91
2018-05-16T08:43:01.531Z,21.84
2018-05-16T08:44:54.368Z,21.99
2018-05-16T08:45:54.375Z,22.12
2018-05-16T08:47:47.321Z,22.22
2018-05-16T08:48:47.325Z,22.24
2018-05-16T08:50:40.244Z,22.28
2018-05-16T08:51:40.273Z,22.36
2018-05-16T08:53:33.212Z,22.43
2018-05-16T08:54:33.221Z,22.55
2018-05-16T08:56:26.142Z,22.67
2018-05-16T08:57:26.167Z,22.82
2018-05-16T08:59:19.111Z,22.73
2018-05-16T09:00:19.118Z,22.83
2018-05-16T09:02:12.036Z,22.97
2018-05-16T09:03:12.066Z,22.98
2018-05-16T09:05:05.016Z,22.86
2018-05-16T09:06:05.019Z,22.61
2018-05-16T09:07:57.941Z,22.30
2018-05-16T09:08:57.968Z,22.27
2018-05-16T09:10:50.908Z,22.18
2018-05-16T09:11:50.917Z,22.00
2018-05-16T09:13:43.855Z,22.03
2018-05-16T09:14:43.864Z,22.02
2018-05-16T09:16:36.780Z,22.02
2018-05-16T09:17:36.811Z,22.02
2018-05-16T09:19:29.746Z,21.96
2018-05-16T09:20:29.756Z,21.84
2018-05-16T09:22:22.672Z,21.80
2018-05-16T09:23:22.700Z,21.83
2018-05-16T09:25:15.743Z,21.74
2018-05-16T09:26:15.653Z,21.84
2018-05-16T09:28:08.566Z,21.98
2018-05-16T09:29:08.594Z,22.06
2018-05-16T09:31:01.534Z,22.25
2018-05-16T09:32:01.540Z,22.31
2018-05-16T09:33:54.482Z,22.25
2018-05-16T09:34:54.487Z,22.31
2018-05-16T09:36:47.404Z,22.40
2018-05-16T09:37:47.433Z,22.43
2018-05-16T09:39:40.373Z,22.45
2018-05-16T09:40:40.381Z,22.28
2018-05-16T09:42:33.299Z,22.35
2018-05-16T09:43:33.327Z,22.17
2018-05-16T09:45:26.274Z,22.24
2018-05-16T09:46:26.279Z,22.28
2018-05-16T09:48:19.197Z,22.40
2018-05-16T09:49:19.225Z,22.51
2018-05-16T09:51:12.172Z,22.55
2018-05-16T09:52:12.173Z,22.68
2018-05-16T09:54:05.106Z,22.77
2018-05-16T09:55:05.132Z,22.86
2018-05-16T09:56:58.081Z,22.85
2018-05-16T09:57:58.087Z,22.86
2018-05-16T09:59:51.028Z,23.04
2018-05-16T10:00:51.035Z,23.23
2018-05-16T10:02:44.063Z,23.39
2018-05-16T10:03:43.986Z,23.55
2018-05-16T10:05:36.936Z,23.63
2018-05-16T10:06:36.941Z,23.54
2018-05-16T10:08:29.867Z,23.75
2018-05-16T10:09:29.896Z,23.79
2018-05-16T10:11:22.846Z,23.87
2018-05-16T10:12:22.850Z,23.91
2018-05-16T10:14:15.778Z,23.95
2018-05-16T10:15:15.806Z,23.90
2018-05-16T10:17:08.810Z,23.68
2018-05-16T10:18:08.761Z,23.60
2018-05-16T10:20:01.691Z,23.55
2018-05-16T10:21:01.714Z,23.57
2018-05-16T10:22:54.662Z,23.55
2018-05-16T10:23:54.671Z,23.43
2018-05-16T10:25:47.616Z,23.39
2018-05-16T10:26:47.620Z,23.50
2018-05-16T10:28:40.546Z,23.47
2018-05-16T10:29:40.573Z,23.46
2018-05-16T10:31:33.521Z,23.36
2018-05-16T10:32:33.529Z,23.38
2018-05-16T10:34:26.555Z,23.33
2018-05-16T10:35:26.481Z,23.28
2018-05-16T10:37:19.430Z,23.25
2018-05-16T10:38:19.436Z,23.17
2018-05-16T10:40:12.852Z,23.36
2018-05-16T10:41:12.876Z,23.35
2018-05-16T10:43:05.818Z,23.20
2018-05-16T10:44:05.825Z,23.32
2018-05-16T10:45:58.779Z,23.16
2018-05-16T10:46:58.775Z,23.20
2018-05-16T10:48:51.696Z,23.15
2018-05-16T10:49:51.723Z,23.28
2018-05-16T10:51:44.665Z,23.38
2018-05-16T10:52:44.671Z,23.36
2018-05-16T10:54:37.595Z,23.23
2018-05-16T10:55:37.620Z,23.38
2018-05-16T10:57:30.687Z,23.23
2018-05-16T10:58:30.568Z,23.17
2018-05-16T11:00:23.500Z,23.22
2018-05-16T11:01:23.518Z,23.33
2018-05-16T11:03:16.491Z,23.38
2018-05-16T11:04:16.468Z,23.35
2018-05-16T11:06:09.394Z,23.36
2018-05-16T11:07:09.420Z,23.36
2018-05-16T11:09:02.368Z,23.28
2018-05-16T11:10:02.469Z,23.19
2018-05-16T11:11:55.317Z,23.23
2018-05-16T11:12:55.319Z,23.23
2018-05-16T11:14:48.382Z,23.25
2018-05-16T11:15:48.411Z,23.20
2018-05-16T11:17:41.354Z,23.25
2018-05-16T11:18:41.362Z,23.17
2018-05-16T11:20:34.281Z,23.20
2018-05-16T11:21:34.308Z,23.25
2018-05-16T11:23:27.255Z,23.19
2018-05-16T11:24:27.257Z,23.28
2018-05-16T11:26:20.178Z,23.46
2018-05-16T11:27:20.205Z,23.51
2018-05-16T11:29:13.155Z,23.68
2018-05-16T11:30:13.158Z,23.76
2018-05-16T11:32:06.217Z,23.80
2018-05-16T11:33:06.249Z,23.72
2018-05-16T11:34:59.194Z,23.68
2018-05-16T11:35:59.196Z,23.58
2018-05-16T11:37:52.138Z,23.48
2018-05-16T11:38:52.146Z,23.48
2018-05-16T11:40:45.068Z,23.55
2018-05-16T11:41:45.096Z,23.68
2018-05-16T11:43:38.045Z,23.68
2018-05-16T11:44:38.046Z,23.69
2018-05-16T11:46:30.971Z,23.68
2018-05-16T11:47:30.996Z,23.66
2018-05-16T11:49:23.938Z,23.72
2018-05-16T11:50:23.948Z,23.88
2018-05-16T11:52:16.867Z,23.98
2018-05-16T11:53:16.895Z,24.12
2018-05-16T11:55:09.846Z,24.21
2018-05-16T11:56:09.848Z,24.37
2018-05-16T11:58:02.796Z,24.35
2018-05-16T11:59:02.800Z,24.31
2018-05-16T12:00:55.728Z,24.43
2018-05-16T12:01:55.753Z,24.40
2018-05-16T12:03:48.703Z,24.52
2018-05-16T12:04:48.707Z,24.47
2018-05-16T12:06:41.629Z,24.55
2018-05-16T12:07:41.657Z,24.53
2018-05-16T12:09:34.602Z,24.55
2018-05-16T12:10:34.615Z,24.62
2018-05-16T12:12:27.536Z,24.50
2018-05-16T12:13:27.564Z,24.55
2018-05-16T12:15:20.514Z,24.52
2018-05-16T12:16:20.516Z,24.57
2018-05-16T12:18:13.468Z,24.58
2018-05-16T12:19:13.470Z,24.62
2018-05-16T12:21:06.395Z,24.77
2018-05-16T12:22:06.425Z,24.76
2018-05-16T12:23:59.372Z,24.71
2018-05-16T12:24:59.380Z,24.76
2018-05-16T12:26:52.304Z,24.80
2018-05-16T12:27:52.335Z,24.81
2018-05-16T12:29:45.287Z,24.87
2018-05-16T12:30:45.297Z,24.98
2018-05-16T12:32:38.222Z,25.00
2018-05-16T12:33:38.251Z,25.09
2018-05-16T12:35:31.205Z,25.13
2018-05-16T12:36:31.233Z,25.15
2018-05-16T12:38:24.140Z,25.33
2018-05-16T12:39:24.164Z,25.25
2018-05-16T12:41:17.116Z,25.28
2018-05-16T12:42:17.123Z,25.27
2018-05-16T12:44:10.041Z,25.28
2018-05-16T12:45:10.108Z,25.30
2018-05-16T12:47:03.015Z,25.39
2018-05-16T12:48:03.063Z,25.40
2018-05-16T12:49:55.995Z,25.55
2018-05-16T12:50:55.977Z,25.50
2018-05-16T12:52:48.903Z,25.51
2018-05-16T12:53:48.932Z,25.65
2018-05-16T12:55:41.952Z,25.61
2018-05-16T12:56:41.886Z,25.62
2018-05-16T12:58:34.811Z,25.67
2018-05-16T12:59:34.841Z,25.62
2018-05-16T13:01:27.897Z,25.65
2018-05-16T13:02:27.801Z,25.64
2018-05-16T13:04:20.724Z,25.80
2018-05-16T13:05:20.755Z,25.75
2018-05-16T13:07:13.707Z,25.76
2018-05-16T13:08:13.711Z,25.76
2018-05-16T13:10:06.665Z,25.90
2018-05-16T13:11:06.672Z,25.91
2018-05-16T13:12:59.628Z,26.06
2018-05-16T13:13:59.645Z,26.09
2018-05-16T13:15:52.591Z,26.32
2018-05-16T13:16:52.598Z,26.43
2018-05-16T13:18:45.524Z,26.25
2018-05-16T13:19:45.556Z,26.12
2018-05-16T13:21:38.577Z,26.20
2018-05-16T13:22:38.512Z,26.20
2018-05-16T13:24:31.436Z,26.48
2018-05-16T13:25:31.468Z,26.57
2018-05-16T13:27:24.418Z,26.66
2018-05-16T13:28:24.427Z,26.65
2018-05-16T13:30:17.357Z,26.57
2018-05-16T13:31:17.383Z,26.58
2018-05-16T13:33:10.334Z,26.66
2018-05-16T13:34:10.341Z,26.54
2018-05-16T13:36:03.301Z,26.28
2018-05-16T13:37:03.298Z,26.33
2018-05-16T13:38:56.226Z,26.26
2018-05-16T13:39:56.256Z,26.23
2018-05-16T13:41:49.208Z,25.99
2018-05-16T13:42:49.217Z,26.02
2018-05-16T13:44:42.144Z,25.97
2018-05-16T13:45:42.172Z,25.90
2018-05-16T13:47:35.123Z,26.09
2018-05-16T13:48:35.130Z,26.15
2018-05-16T13:50:28.064Z,26.28
2018-05-16T13:51:28.091Z,26.36
2018-05-16T13:53:21.050Z,26.52
2018-05-16T13:54:21.045Z,26.55
2018-05-16T13:56:13.971Z,26.50
2018-05-16T13:57:14.001Z,26.66
2018-05-16T13:59:06.955Z,26.81
2018-05-16T14:00:06.979Z,26.72
2018-05-16T14:01:59.911Z,26.77
2018-05-16T14:02:59.920Z,26.85
2018-05-16T14:04:52.849Z,26.88
2018-05-16T14:05:52.877Z,26.95
2018-05-16T14:07:45.829Z,26.95
2018-05-16T14:08:45.836Z,27.07
2018-05-16T14:10:38.773Z,26.95
2018-05-16T14:11:38.805Z,26.94
2018-05-16T14:13:31.754Z,26.80
2018-05-16T14:14:31.760Z,26.67
2018-05-16T14:16:24.689Z,26.37
2018-05-16T14:17:24.717Z,26.25
2018-05-16T14:19:17.664Z,25.99
2018-05-16T14:20:17.674Z,25.80
2018-05-16T14:22:10.624Z,25.54
2018-05-16T14:23:10.629Z,25.50
2018-05-16T14:25:04.558Z,25.21
2018-05-16T14:26:04.585Z,25.05
2018-05-16T14:27:57.533Z,24.87
2018-05-16T14:28:57.539Z,24.78
2018-05-16T14:30:50.516Z,24.53
2018-05-16T14:31:50.544Z,24.35
2018-05-16T14:33:43.496Z,24.18
2018-05-16T14:34:43.503Z,24.12
2018-05-16T14:36:36.428Z,23.88
2018-05-16T14:37:36.505Z,23.90
2018-05-16T14:39:29.400Z,23.72
2018-05-16T14:40:29.411Z,23.70
2018-05-16T14:42:22.392Z,23.54
2018-05-16T14:43:22.364Z,23.47
2018-05-16T14:45:15.289Z,23.32
2018-05-16T14:46:15.318Z,23.10
2018-05-16T14:48:08.273Z,22.91
2018-05-16T14:49:08.272Z,22.73
2018-05-16T14:51:01.192Z,22.57
2018-05-16T14:52:01.222Z,22.37
2018-05-16T14:53:54.168Z,22.18
2018-05-16T14:54:54.181Z,22.09
2018-05-16T14:56:47.126Z,21.71
2018-05-16T14:57:47.227Z,21.65
2018-05-16T14:59:40.613Z,21.42
2018-05-16T15:00:40.632Z,21.31
2018-05-16T15:02:33.649Z,21.13
2018-05-16T15:03:33.679Z,21.03
2018-05-16T15:05:27.130Z,20.89
2018-05-16T15:06:27.142Z,20.92
2018-05-16T15:08:20.184Z,20.97
2018-05-16T15:09:20.195Z,20.99
2018-05-16T15:11:13.637Z,20.85
2018-05-16T15:12:13.665Z,20.66
2018-05-16T15:14:06.710Z,20.64
2018-05-16T15:15:06.720Z,20.57
2018-05-16T15:17:00.158Z,20.42
2018-05-16T15:18:00.186Z,20.36
2018-05-16T15:19:53.236Z,19.99
2018-05-16T15:20:53.242Z,19.92
2018-05-16T15:22:46.273Z,19.68
2018-05-16T15:23:46.295Z,19.73
2018-05-16T15:25:39.245Z,19.84
2018-05-16T15:26:39.460Z,19.87
2018-05-16T15:28:32.178Z,19.91
2018-05-16T15:29:32.207Z,19.83
2018-05-16T15:31:25.667Z,19.78
2018-05-16T15:32:25.669Z,19.68
2018-05-16T15:34:19.130Z,19.50
2018-05-16T15:35:19.136Z,19.36
2018-05-16T15:37:12.061Z,19.06
2018-05-16T15:38:12.097Z,19.04
2018-05-16T15:40:05.034Z,18.91
2018-05-16T15:41:05.041Z,18.95
2018-05-16T15:42:57.972Z,19.06
2018-05-16T15:43:58.001Z,19.14
2018-05-16T15:45:50.940Z,19.44
2018-05-16T15:46:51.021Z,19.59
2018-05-16T15:48:43.878Z,19.80
2018-05-16T15:49:43.905Z,19.95
2018-05-16T15:51:36.853Z,20.16
2018-05-16T15:52:36.860Z,20.18
2018-05-16T15:54:29.909Z,20.39
2018-05-16T15:55:29.916Z,20.36
2018-05-16T15:57:22.842Z,20.29
2018-05-16T15:58:22.870Z,20.31
2018-05-16T16:00:16.328Z,20.26
2018-05-16T16:01:16.335Z,20.29
2018-05-16T16:03:09.263Z,20.38
2018-05-16T16:04:09.290Z,20.38
2018-05-16T16:06:02.237Z,20.33
2018-05-16T16:07:02.243Z,20.29
2018-05-16T16:08:55.171Z,20.35
2018-05-16T16:09:55.197Z,20.24
2018-05-16T16:11:48.145Z,20.39
2018-05-16T16:12:48.171Z,20.50
2018-05-16T16:14:41.085Z,20.32
2018-05-16T16:15:41.107Z,20.31
2018-05-16T16:17:34.055Z,20.11
2018-05-16T16:18:34.062Z,20.02
2018-05-16T16:20:27.108Z,19.88
2018-05-16T16:21:27.115Z,19.74
2018-05-16T16:23:30.036Z,19.56
2018-05-16T16:24:30.061Z,19.36
2018-05-16T16:26:22.993Z,19.31
2018-05-16T16:27:22.996Z,19.32
2018-05-16T16:29:15.911Z,19.29
2018-05-16T16:30:15.935Z,19.22
2018-05-16T16:32:08.868Z,19.26
2018-05-16T16:33:08.869Z,19.18
2018-05-16T16:35:01.779Z,18.98
2018-05-16T16:36:01.804Z,18.98
2018-05-16T16:37:54.735Z,18.81
2018-05-16T16:38:54.782Z,18.69
2018-05-16T16:40:47.651Z,18.55
2018-05-16T16:41:47.674Z,18.47
2018-05-16T16:43:40.605Z,18.21
2018-05-16T16:44:40.607Z,18.10
2018-05-16T16:46:33.551Z,18.00
2018-05-16T16:47:33.543Z,18.18
2018-05-16T16:49:26.452Z,18.27
2018-05-16T16:50:26.473Z,18.21
2018-05-16T16:52:19.405Z,18.39
2018-05-16T16:53:19.415Z,18.39
2018-05-16T16:55:12.318Z,18.39
2018-05-16T16:56:12.341Z,18.37
2018-05-16T16:58:05.271Z,18.26
2018-05-16T16:59:05.305Z,18.14
2018-05-16T17:00:58.202Z,17.95
2018-05-16T17:01:58.225Z,17.79
2018-05-16T17:03:51.156Z,17.78
2018-05-16T17:04:51.160Z,17.70
2018-05-16T17:06:44.068Z,17.66
2018-05-16T17:07:44.092Z,17.63
2018-05-16T17:09:37.022Z,17.58
2018-05-16T17:10:37.026Z,17.43
2018-05-16T17:12:29.958Z,17.38
2018-05-16T17:13:29.960Z,17.40
2018-05-16T17:15:22.871Z,17.37
2018-05-16T17:16:22.944Z,17.46
2018-05-16T17:18:15.824Z,17.41
2018-05-16T17:19:15.829Z,17.30
2018-05-16T17:21:08.737Z,17.33
2018-05-16T17:22:08.759Z,17.25
2018-05-16T17:24:01.696Z,17.38
2018-05-16T17:25:01.692Z,17.44
2018-05-16T17:26:54.687Z,17.43
2018-05-16T17:27:54.625Z,17.55
2018-05-16T17:29:47.576Z,17.86
2018-05-16T17:30:47.582Z,17.72
2018-05-16T17:32:40.517Z,17.84
2018-05-16T17:33:40.516Z,17.90
2018-05-16T17:35:33.500Z,17.90
2018-05-16T17:36:33.451Z,17.86
2018-05-16T17:38:26.382Z,17.97
2018-05-16T17:39:26.387Z,18.02
2018-05-16T17:41:19.302Z,18.10
2018-05-16T17:42:19.317Z,18.11
2018-05-16T17:44:12.256Z,18.20
2018-05-16T17:45:12.271Z,18.20
2018-05-16T17:47:05.163Z,18.29
2018-05-16T17:48:05.199Z,18.30
2018-05-16T17:49:58.115Z,18.21
2018-05-16T17:50:58.122Z,18.27
2018-05-16T17:52:51.032Z,18.45
2018-05-16T17:53:51.194Z,18.60
2018-05-16T17:55:43.991Z,18.78
2018-05-16T17:56:43.993Z,18.88
2018-05-16T17:58:36.925Z,19.21
2018-05-16T17:59:36.929Z,19.28
2018-05-16T18:01:29.843Z,19.46
2018-05-16T18:02:29.874Z,19.61
2018-05-16T18:04:22.801Z,19.68
2018-05-16T18:05:22.804Z,19.87
2018-05-16T18:07:15.717Z,20.16
2018-05-16T18:08:15.744Z,20.18
2018-05-16T18:10:08.675Z,20.32
2018-05-16T18:11:08.687Z,20.41
2018-05-16T18:13:01.598Z,20.67
2018-05-16T18:14:01.621Z,20.69
2018-05-16T18:15:54.709Z,20.52
2018-05-16T18:16:54.718Z,20.47
2018-05-16T18:18:47.634Z,20.11
2018-05-16T18:19:48.182Z,19.86
2018-05-16T18:21:40.626Z,19.56
2018-05-16T18:22:40.598Z,19.43
2018-05-16T18:24:33.574Z,19.44
2018-05-16T18:25:33.564Z,19.43
2018-05-16T18:27:26.482Z,19.43
2018-05-16T18:28:26.596Z,19.28
2018-05-16T18:30:19.443Z,19.26
2018-05-16T18:31:19.446Z,19.29
2018-05-16T18:33:12.362Z,19.07